sensor_id;sensor_type;location;lat;lon;timestamp;P1;durP1;ratioP1;P2;durP2;ratioP2
9056;SDS011;4563;54.756;9.400;2023-09-19T00:01:39;1.70;;;1.67;;
9056;SDS011;4563;54.756;9.400;2023-09-19T00:04:08;6.20;;;5.97;;
9056;SDS011;4563;54.756;9.400;2023-09-19T00:06:35;4.17;;;4.07;;
9056;SDS011;4563;54.756;9.400;2023-09-19T00:09:02;6.53;;;6.27;;
9056;SDS011;4563;54.756;9.400;2023-09-19T00:11:29;7.53;;;7.23;;
9056;SDS011;4563;54.756;9.400;2023-09-19T00:13:56;6.63;;;6.33;;
9056;SDS011;4563;54.756;9.400;2023-09-19T00:16:24;2.23;;;2.13;;
9056;SDS011;4563;54.756;9.400;2023-09-19T00:18:51;2.67;;;2.57;;
9056;SDS011;4563;54.756;9.400;2023-09-19T00:21:19;1.13;;;1.13;;
9056;SDS011;4563;54.756;9.400;2023-09-19T00:23:46;1.23;;;1.23;;
9056;SDS011;4563;54.756;9.400;2023-09-19T00:26:12;1.60;;;1.50;;
9056;SDS011;4563;54.756;9.400;2023-09-19T00:28:39;2.00;;;1.90;;
9056;SDS011;4563;54.756;9.400;2023-09-19T00:31:07;1.37;;;1.37;;
9056;SDS011;4563;54.756;9.400;2023-09-19T00:33:34;1.97;;;1.97;;
9056;SDS011;4563;54.756;9.400;2023-09-19T00:36:04;1.50;;;1.40;;
9056;SDS011;4563;54.756;9.400;2023-09-19T00:38:35;1.57;;;1.30;;
9056;SDS011;4563;54.756;9.400;2023-09-19T00:41:02;1.03;;;0.80;;
9056;SDS011;4563;54.756;9.400;2023-09-19T00:43:29;0.60;;;0.60;;
9056;SDS011;4563;54.756;9.400;2023-09-19T00:45:59;0.70;;;0.70;;
9056;SDS011;4563;54.756;9.400;2023-09-19T00:48:28;1.13;;;0.77;;
9056;SDS011;4563;54.756;9.400;2023-09-19T00:50:56;1.33;;;0.80;;
9056;SDS011;4563;54.756;9.400;2023-09-19T00:53:26;0.40;;;0.40;;
9056;SDS011;4563;54.756;9.400;2023-09-19T00:55:54;0.60;;;0.50;;
9056;SDS011;4563;54.756;9.400;2023-09-19T00:58:22;1.47;;;0.60;;
9056;SDS011;4563;54.756;9.400;2023-09-19T01:00:49;0.77;;;0.60;;
9056;SDS011;4563;54.756;9.400;2023-09-19T01:03:16;0.43;;;0.40;;
9056;SDS011;4563;54.756;9.400;2023-09-19T01:05:43;1.10;;;0.60;;
9056;SDS011;4563;54.756;9.400;2023-09-19T01:08:10;0.47;;;0.47;;
9056;SDS011;4563;54.756;9.400;2023-09-19T01:10:37;0.40;;;0.40;;
9056;SDS011;4563;54.756;9.400;2023-09-19T01:13:19;0.80;;;0.57;;
9056;SDS011;4563;54.756;9.400;2023-09-19T01:15:59;0.60;;;0.60;;
9056;SDS011;4563;54.756;9.400;2023-09-19T01:18:33;0.60;;;0.60;;
9056;SDS011;4563;54.756;9.400;2023-09-19T01:21:08;0.60;;;0.60;;
9056;SDS011;4563;54.756;9.400;2023-09-19T01:23:47;0.40;;;0.40;;
9056;SDS011;4563;54.756;9.400;2023-09-19T01:26:39;0.47;;;0.47;;
9056;SDS011;4563;54.756;9.400;2023-09-19T01:29:26;0.37;;;0.37;;
9056;SDS011;4563;54.756;9.400;2023-09-19T01:32:05;0.80;;;0.40;;
9056;SDS011;4563;54.756;9.400;2023-09-19T01:34:44;0.40;;;0.40;;
9056;SDS011;4563;54.756;9.400;2023-09-19T01:37:15;0.40;;;0.40;;
9056;SDS011;4563;54.756;9.400;2023-09-19T01:39:45;0.43;;;0.40;;
9056;SDS011;4563;54.756;9.400;2023-09-19T01:42:17;1.17;;;0.40;;
9056;SDS011;4563;54.756;9.400;2023-09-19T01:44:51;0.80;;;0.53;;
9056;SDS011;4563;54.756;9.400;2023-09-19T01:47:31;0.50;;;0.50;;
9056;SDS011;4563;54.756;9.400;2023-09-19T01:50:01;0.57;;;0.57;;
9056;SDS011;4563;54.756;9.400;2023-09-19T01:52:38;0.53;;;0.53;;
9056;SDS011;4563;54.756;9.400;2023-09-19T01:55:11;0.43;;;0.43;;
9056;SDS011;4563;54.756;9.400;2023-09-19T01:57:45;0.53;;;0.40;;
9056;SDS011;4563;54.756;9.400;2023-09-19T02:00:15;1.00;;;0.40;;
9056;SDS011;4563;54.756;9.400;2023-09-19T02:02:46;0.30;;;0.30;;
9056;SDS011;4563;54.756;9.400;2023-09-19T02:05:14;0.20;;;0.20;;
9056;SDS011;4563;54.756;9.400;2023-09-19T02:07:49;0.30;;;0.27;;
9056;SDS011;4563;54.756;9.400;2023-09-19T02:10:16;0.60;;;0.30;;
9056;SDS011;4563;54.756;9.400;2023-09-19T02:12:43;1.60;;;0.30;;
9056;SDS011;4563;54.756;9.400;2023-09-19T02:15:12;0.40;;;0.40;;
9056;SDS011;4563;54.756;9.400;2023-09-19T02:17:41;0.63;;;0.40;;
9056;SDS011;4563;54.756;9.400;2023-09-19T02:20:09;0.57;;;0.30;;
9056;SDS011;4563;54.756;9.400;2023-09-19T02:22:39;0.30;;;0.30;;
9056;SDS011;4563;54.756;9.400;2023-09-19T02:25:07;0.70;;;0.40;;
9056;SDS011;4563;54.756;9.400;2023-09-19T02:27:34;0.30;;;0.30;;
9056;SDS011;4563;54.756;9.400;2023-09-19T02:30:02;0.40;;;0.30;;
9056;SDS011;4563;54.756;9.400;2023-09-19T02:32:31;0.30;;;0.30;;
9056;SDS011;4563;54.756;9.400;2023-09-19T02:35:01;0.30;;;0.30;;
9056;SDS011;4563;54.756;9.400;2023-09-19T02:37:30;0.30;;;0.20;;
9056;SDS011;4563;54.756;9.400;2023-09-19T02:39:57;0.30;;;0.30;;
9056;SDS011;4563;54.756;9.400;2023-09-19T02:42:24;0.20;;;0.20;;
9056;SDS011;4563;54.756;9.400;2023-09-19T02:44:51;0.20;;;0.20;;
9056;SDS011;4563;54.756;9.400;2023-09-19T02:47:18;0.43;;;0.30;;
9056;SDS011;4563;54.756;9.400;2023-09-19T02:49:45;0.30;;;0.30;;
9056;SDS011;4563;54.756;9.400;2023-09-19T02:52:12;0.40;;;0.40;;
9056;SDS011;4563;54.756;9.400;2023-09-19T02:54:41;0.30;;;0.20;;
9056;SDS011;4563;54.756;9.400;2023-09-19T02:57:10;0.40;;;0.30;;
9056;SDS011;4563;54.756;9.400;2023-09-19T02:59:39;0.30;;;0.30;;
9056;SDS011;4563;54.756;9.400;2023-09-19T03:02:07;0.30;;;0.30;;
9056;SDS011;4563;54.756;9.400;2023-09-19T03:04:34;0.30;;;0.30;;
9056;SDS011;4563;54.756;9.400;2023-09-19T03:07:02;0.30;;;0.30;;
9056;SDS011;4563;54.756;9.400;2023-09-19T03:09:29;0.30;;;0.30;;
9056;SDS011;4563;54.756;9.400;2023-09-19T03:11:57;0.50;;;0.50;;
9056;SDS011;4563;54.756;9.400;2023-09-19T03:14:24;0.43;;;0.40;;
9056;SDS011;4563;54.756;9.400;2023-09-19T03:16:55;0.50;;;0.43;;
9056;SDS011;4563;54.756;9.400;2023-09-19T03:19:21;0.50;;;0.50;;
9056;SDS011;4563;54.756;9.400;2023-09-19T03:21:48;0.47;;;0.40;;
9056;SDS011;4563;54.756;9.400;2023-09-19T03:24:15;0.40;;;0.40;;
9056;SDS011;4563;54.756;9.400;2023-09-19T03:26:42;0.97;;;0.30;;
9056;SDS011;4563;54.756;9.400;2023-09-19T03:29:11;0.40;;;0.30;;
9056;SDS011;4563;54.756;9.400;2023-09-19T03:31:39;0.43;;;0.30;;
9056;SDS011;4563;54.756;9.400;2023-09-19T03:34:05;0.67;;;0.40;;
9056;SDS011;4563;54.756;9.400;2023-09-19T03:36:34;0.63;;;0.40;;
9056;SDS011;4563;54.756;9.400;2023-09-19T03:39:06;0.40;;;0.40;;
9056;SDS011;4563;54.756;9.400;2023-09-19T03:41:33;0.60;;;0.50;;
9056;SDS011;4563;54.756;9.400;2023-09-19T03:44:01;0.43;;;0.43;;
9056;SDS011;4563;54.756;9.400;2023-09-19T03:46:30;0.57;;;0.57;;
9056;SDS011;4563;54.756;9.400;2023-09-19T03:48:57;0.40;;;0.40;;
9056;SDS011;4563;54.756;9.400;2023-09-19T03:51:24;0.73;;;0.40;;
9056;SDS011;4563;54.756;9.400;2023-09-19T03:53:50;0.30;;;0.30;;
9056;SDS011;4563;54.756;9.400;2023-09-19T03:56:17;1.00;;;0.40;;
9056;SDS011;4563;54.756;9.400;2023-09-19T03:58:44;0.60;;;0.50;;
9056;SDS011;4563;54.756;9.400;2023-09-19T04:01:10;0.40;;;0.40;;
9056;SDS011;4563;54.756;9.400;2023-09-19T04:03:39;0.50;;;0.37;;
9056;SDS011;4563;54.756;9.400;2023-09-19T04:06:12;0.47;;;0.33;;
9056;SDS011;4563;54.756;9.400;2023-09-19T04:08:39;1.47;;;0.50;;
9056;SDS011;4563;54.756;9.400;2023-09-19T04:11:06;0.30;;;0.30;;
9056;SDS011;4563;54.756;9.400;2023-09-19T04:13:33;0.50;;;0.40;;
9056;SDS011;4563;54.756;9.400;2023-09-19T04:16:00;0.50;;;0.50;;
9056;SDS011;4563;54.756;9.400;2023-09-19T04:18:28;1.40;;;0.60;;
9056;SDS011;4563;54.756;9.400;2023-09-19T04:20:59;1.30;;;0.70;;
9056;SDS011;4563;54.756;9.400;2023-09-19T04:23:27;0.60;;;0.60;;
9056;SDS011;4563;54.756;9.400;2023-09-19T04:25:54;0.63;;;0.60;;
9056;SDS011;4563;54.756;9.400;2023-09-19T04:28:21;0.70;;;0.70;;
9056;SDS011;4563;54.756;9.400;2023-09-19T04:30:49;1.07;;;0.90;;
9056;SDS011;4563;54.756;9.400;2023-09-19T04:33:16;1.07;;;0.97;;
9056;SDS011;4563;54.756;9.400;2023-09-19T04:35:42;0.80;;;0.73;;
9056;SDS011;4563;54.756;9.400;2023-09-19T04:38:11;0.80;;;0.80;;
9056;SDS011;4563;54.756;9.400;2023-09-19T04:40:38;0.73;;;0.53;;
9056;SDS011;4563;54.756;9.400;2023-09-19T04:43:05;0.70;;;0.70;;
9056;SDS011;4563;54.756;9.400;2023-09-19T04:45:32;0.90;;;0.60;;
9056;SDS011;4563;54.756;9.400;2023-09-19T04:47:59;0.97;;;0.60;;
9056;SDS011;4563;54.756;9.400;2023-09-19T04:50:27;0.53;;;0.37;;
9056;SDS011;4563;54.756;9.400;2023-09-19T04:52:54;0.67;;;0.50;;
9056;SDS011;4563;54.756;9.400;2023-09-19T04:55:23;0.40;;;0.40;;
9056;SDS011;4563;54.756;9.400;2023-09-19T04:57:50;0.43;;;0.33;;
9056;SDS011;4563;54.756;9.400;2023-09-19T05:00:18;0.63;;;0.30;;
9056;SDS011;4563;54.756;9.400;2023-09-19T05:02:49;0.30;;;0.30;;
9056;SDS011;4563;54.756;9.400;2023-09-19T05:05:16;0.40;;;0.40;;
9056;SDS011;4563;54.756;9.400;2023-09-19T05:07:44;0.60;;;0.40;;
9056;SDS011;4563;54.756;9.400;2023-09-19T05:10:11;0.50;;;0.40;;
9056;SDS011;4563;54.756;9.400;2023-09-19T05:12:40;0.40;;;0.20;;
9056;SDS011;4563;54.756;9.400;2023-09-19T05:15:10;0.30;;;0.30;;
9056;SDS011;4563;54.756;9.400;2023-09-19T05:17:37;0.77;;;0.37;;
9056;SDS011;4563;54.756;9.400;2023-09-19T05:20:04;0.50;;;0.40;;
9056;SDS011;4563;54.756;9.400;2023-09-19T05:22:41;0.30;;;0.30;;
9056;SDS011;4563;54.756;9.400;2023-09-19T05:25:08;0.40;;;0.30;;
9056;SDS011;4563;54.756;9.400;2023-09-19T05:27:36;0.83;;;0.43;;
9056;SDS011;4563;54.756;9.400;2023-09-19T05:30:07;0.20;;;0.20;;
9056;SDS011;4563;54.756;9.400;2023-09-19T05:32:35;0.20;;;0.20;;
9056;SDS011;4563;54.756;9.400;2023-09-19T05:35:02;0.30;;;0.30;;
9056;SDS011;4563;54.756;9.400;2023-09-19T05:37:33;0.30;;;0.30;;
9056;SDS011;4563;54.756;9.400;2023-09-19T05:40:00;0.50;;;0.50;;
9056;SDS011;4563;54.756;9.400;2023-09-19T05:42:29;0.30;;;0.30;;
9056;SDS011;4563;54.756;9.400;2023-09-19T05:44:56;0.30;;;0.30;;
9056;SDS011;4563;54.756;9.400;2023-09-19T05:47:25;0.77;;;0.30;;
9056;SDS011;4563;54.756;9.400;2023-09-19T05:49:51;0.30;;;0.30;;
9056;SDS011;4563;54.756;9.400;2023-09-19T05:52:18;0.67;;;0.30;;
9056;SDS011;4563;54.756;9.400;2023-09-19T05:54:47;0.47;;;0.37;;
9056;SDS011;4563;54.756;9.400;2023-09-19T05:57:14;0.30;;;0.30;;
9056;SDS011;4563;54.756;9.400;2023-09-19T05:59:41;1.90;;;0.40;;
9056;SDS011;4563;54.756;9.400;2023-09-19T06:02:08;0.90;;;0.40;;
9056;SDS011;4563;54.756;9.400;2023-09-19T06:04:38;0.63;;;0.40;;
9056;SDS011;4563;54.756;9.400;2023-09-19T06:07:06;0.30;;;0.30;;
9056;SDS011;4563;54.756;9.400;2023-09-19T06:09:33;1.40;;;0.53;;
9056;SDS011;4563;54.756;9.400;2023-09-19T06:11:59;0.30;;;0.30;;
9056;SDS011;4563;54.756;9.400;2023-09-19T06:14:28;0.73;;;0.50;;
9056;SDS011;4563;54.756;9.400;2023-09-19T06:16:55;1.90;;;0.70;;
9056;SDS011;4563;54.756;9.400;2023-09-19T06:19:22;0.40;;;0.33;;
9056;SDS011;4563;54.756;9.400;2023-09-19T06:21:53;0.40;;;0.40;;
9056;SDS011;4563;54.756;9.400;2023-09-19T06:24:20;0.30;;;0.30;;
9056;SDS011;4563;54.756;9.400;2023-09-19T06:26:46;0.50;;;0.37;;
9056;SDS011;4563;54.756;9.400;2023-09-19T06:29:14;0.40;;;0.40;;
9056;SDS011;4563;54.756;9.400;2023-09-19T06:31:41;0.50;;;0.50;;
9056;SDS011;4563;54.756;9.400;2023-09-19T06:34:09;0.30;;;0.30;;
9056;SDS011;4563;54.756;9.400;2023-09-19T06:36:36;0.80;;;0.80;;
9056;SDS011;4563;54.756;9.400;2023-09-19T06:39:04;3.60;;;3.50;;
9056;SDS011;4563;54.756;9.400;2023-09-19T06:41:31;8.17;;;7.73;;
9056;SDS011;4563;54.756;9.400;2023-09-19T06:43:58;6.97;;;6.77;;
9056;SDS011;4563;54.756;9.400;2023-09-19T06:46:25;17.40;;;16.53;;
9056;SDS011;4563;54.756;9.400;2023-09-19T06:48:57;25.13;;;23.80;;
9056;SDS011;4563;54.756;9.400;2023-09-19T06:51:24;24.87;;;23.47;;
9056;SDS011;4563;54.756;9.400;2023-09-19T06:53:51;23.97;;;22.67;;
9056;SDS011;4563;54.756;9.400;2023-09-19T06:56:20;17.80;;;16.90;;
9056;SDS011;4563;54.756;9.400;2023-09-19T06:58:50;1.97;;;1.87;;
9056;SDS011;4563;54.756;9.400;2023-09-19T07:01:17;0.40;;;0.40;;
9056;SDS011;4563;54.756;9.400;2023-09-19T07:03:44;0.60;;;0.50;;
9056;SDS011;4563;54.756;9.400;2023-09-19T07:06:11;0.20;;;0.20;;
9056;SDS011;4563;54.756;9.400;2023-09-19T07:08:38;0.83;;;0.20;;
9056;SDS011;4563;54.756;9.400;2023-09-19T07:11:05;0.23;;;0.23;;
9056;SDS011;4563;54.756;9.400;2023-09-19T07:13:33;0.37;;;0.37;;
9056;SDS011;4563;54.756;9.400;2023-09-19T07:16:02;0.40;;;0.40;;
9056;SDS011;4563;54.756;9.400;2023-09-19T07:18:29;0.40;;;0.40;;
9056;SDS011;4563;54.756;9.400;2023-09-19T07:20:57;0.40;;;0.20;;
9056;SDS011;4563;54.756;9.400;2023-09-19T07:23:30;0.20;;;0.20;;
9056;SDS011;4563;54.756;9.400;2023-09-19T07:26:00;0.20;;;0.20;;
9056;SDS011;4563;54.756;9.400;2023-09-19T07:28:30;0.30;;;0.20;;
9056;SDS011;4563;54.756;9.400;2023-09-19T07:30:59;0.20;;;0.20;;
9056;SDS011;4563;54.756;9.400;2023-09-19T07:33:28;0.23;;;0.20;;
9056;SDS011;4563;54.756;9.400;2023-09-19T07:35:55;0.20;;;0.20;;
9056;SDS011;4563;54.756;9.400;2023-09-19T07:38:21;0.30;;;0.30;;
9056;SDS011;4563;54.756;9.400;2023-09-19T07:40:48;0.37;;;0.30;;
9056;SDS011;4563;54.756;9.400;2023-09-19T07:43:15;0.37;;;0.20;;
9056;SDS011;4563;54.756;9.400;2023-09-19T07:45:43;0.23;;;0.20;;
9056;SDS011;4563;54.756;9.400;2023-09-19T07:48:11;0.40;;;0.40;;
9056;SDS011;4563;54.756;9.400;2023-09-19T07:50:40;0.37;;;0.33;;
9056;SDS011;4563;54.756;9.400;2023-09-19T07:53:08;0.50;;;0.50;;
9056;SDS011;4563;54.756;9.400;2023-09-19T07:55:37;0.60;;;0.40;;
9056;SDS011;4563;54.756;9.400;2023-09-19T07:58:04;0.20;;;0.20;;
9056;SDS011;4563;54.756;9.400;2023-09-19T08:00:32;0.73;;;0.60;;
9056;SDS011;4563;54.756;9.400;2023-09-19T08:03:00;0.53;;;0.47;;
9056;SDS011;4563;54.756;9.400;2023-09-19T08:05:30;1.07;;;0.40;;
9056;SDS011;4563;54.756;9.400;2023-09-19T08:07:58;0.40;;;0.27;;
9056;SDS011;4563;54.756;9.400;2023-09-19T08:10:28;0.57;;;0.37;;
9056;SDS011;4563;54.756;9.400;2023-09-19T08:13:00;0.57;;;0.40;;
9056;SDS011;4563;54.756;9.400;2023-09-19T08:15:27;0.77;;;0.53;;
9056;SDS011;4563;54.756;9.400;2023-09-19T08:17:54;0.30;;;0.30;;
9056;SDS011;4563;54.756;9.400;2023-09-19T08:20:20;0.40;;;0.30;;
9056;SDS011;4563;54.756;9.400;2023-09-19T08:22:49;1.07;;;0.40;;
9056;SDS011;4563;54.756;9.400;2023-09-19T08:25:19;1.47;;;0.70;;
9056;SDS011;4563;54.756;9.400;2023-09-19T08:27:46;1.70;;;0.60;;
9056;SDS011;4563;54.756;9.400;2023-09-19T08:30:14;1.23;;;0.43;;
9056;SDS011;4563;54.756;9.400;2023-09-19T08:32:41;0.77;;;0.40;;
9056;SDS011;4563;54.756;9.400;2023-09-19T08:35:08;0.50;;;0.47;;
9056;SDS011;4563;54.756;9.400;2023-09-19T08:37:35;0.50;;;0.30;;
9056;SDS011;4563;54.756;9.400;2023-09-19T08:40:04;0.67;;;0.50;;
9056;SDS011;4563;54.756;9.400;2023-09-19T08:42:47;0.50;;;0.40;;
9056;SDS011;4563;54.756;9.400;2023-09-19T08:45:15;0.63;;;0.27;;
9056;SDS011;4563;54.756;9.400;2023-09-19T08:47:50;4.10;;;0.60;;
9056;SDS011;4563;54.756;9.400;2023-09-19T08:50:28;0.90;;;0.70;;
9056;SDS011;4563;54.756;9.400;2023-09-19T08:52:56;0.70;;;0.70;;
9056;SDS011;4563;54.756;9.400;2023-09-19T08:55:28;0.40;;;0.40;;
9056;SDS011;4563;54.756;9.400;2023-09-19T08:58:00;0.50;;;0.50;;
9056;SDS011;4563;54.756;9.400;2023-09-19T09:00:31;0.43;;;0.43;;
9056;SDS011;4563;54.756;9.400;2023-09-19T09:03:00;0.50;;;0.50;;
9056;SDS011;4563;54.756;9.400;2023-09-19T09:05:29;0.77;;;0.30;;
9056;SDS011;4563;54.756;9.400;2023-09-19T09:07:57;0.40;;;0.40;;
9056;SDS011;4563;54.756;9.400;2023-09-19T09:10:25;0.20;;;0.20;;
9056;SDS011;4563;54.756;9.400;2023-09-19T09:12:53;0.73;;;0.40;;
9056;SDS011;4563;54.756;9.400;2023-09-19T09:15:24;0.50;;;0.40;;
9056;SDS011;4563;54.756;9.400;2023-09-19T09:17:55;0.97;;;0.50;;
9056;SDS011;4563;54.756;9.400;2023-09-19T09:20:23;2.93;;;0.30;;
9056;SDS011;4563;54.756;9.400;2023-09-19T09:22:50;0.50;;;0.30;;
9056;SDS011;4563;54.756;9.400;2023-09-19T09:25:19;0.50;;;0.40;;
9056;SDS011;4563;54.756;9.400;2023-09-19T09:27:51;0.83;;;0.83;;
9056;SDS011;4563;54.756;9.400;2023-09-19T09:30:33;1.00;;;0.50;;
9056;SDS011;4563;54.756;9.400;2023-09-19T09:33:11;1.50;;;0.70;;
9056;SDS011;4563;54.756;9.400;2023-09-19T09:35:47;0.77;;;0.40;;
9056;SDS011;4563;54.756;9.400;2023-09-19T09:38:18;0.50;;;0.50;;
9056;SDS011;4563;54.756;9.400;2023-09-19T09:40:46;0.80;;;0.53;;
9056;SDS011;4563;54.756;9.400;2023-09-19T09:43:32;0.80;;;0.60;;
9056;SDS011;4563;54.756;9.400;2023-09-19T09:46:07;0.80;;;0.50;;
9056;SDS011;4563;54.756;9.400;2023-09-19T09:48:59;0.83;;;0.73;;
9056;SDS011;4563;54.756;9.400;2023-09-19T09:51:44;0.80;;;0.77;;
9056;SDS011;4563;54.756;9.400;2023-09-19T09:54:13;1.00;;;0.43;;
9056;SDS011;4563;54.756;9.400;2023-09-19T10:02:13;0.57;;;0.50;;
9056;SDS011;4563;54.756;9.400;2023-09-19T10:04:47;1.07;;;0.43;;
9056;SDS011;4563;54.756;9.400;2023-09-19T10:07:33;0.50;;;0.50;;
9056;SDS011;4563;54.756;9.400;2023-09-19T10:10:02;0.57;;;0.50;;
9056;SDS011;4563;54.756;9.400;2023-09-19T10:12:45;0.50;;;0.50;;
9056;SDS011;4563;54.756;9.400;2023-09-19T10:15:14;0.40;;;0.40;;
9056;SDS011;4563;54.756;9.400;2023-09-19T10:17:45;0.50;;;0.40;;
9056;SDS011;4563;54.756;9.400;2023-09-19T10:20:13;0.50;;;0.40;;
9056;SDS011;4563;54.756;9.400;2023-09-19T10:22:59;0.50;;;0.30;;
9056;SDS011;4563;54.756;9.400;2023-09-19T10:25:27;0.73;;;0.50;;
9056;SDS011;4563;54.756;9.400;2023-09-19T10:27:55;0.50;;;0.40;;
9056;SDS011;4563;54.756;9.400;2023-09-19T10:30:25;0.43;;;0.40;;
9056;SDS011;4563;54.756;9.400;2023-09-19T10:32:57;0.80;;;0.60;;
9056;SDS011;4563;54.756;9.400;2023-09-19T10:35:26;1.13;;;0.70;;
9056;SDS011;4563;54.756;9.400;2023-09-19T10:37:56;0.40;;;0.40;;
9056;SDS011;4563;54.756;9.400;2023-09-19T10:40:26;0.77;;;0.77;;
9056;SDS011;4563;54.756;9.400;2023-09-19T10:42:59;19.30;;;18.20;;
9056;SDS011;4563;54.756;9.400;2023-09-19T10:45:30;23.87;;;22.60;;
9056;SDS011;4563;54.756;9.400;2023-09-19T10:47:59;26.17;;;24.67;;
9056;SDS011;4563;54.756;9.400;2023-09-19T10:50:29;29.80;;;28.23;;
9056;SDS011;4563;54.756;9.400;2023-09-19T10:52:59;25.80;;;24.30;;
9056;SDS011;4563;54.756;9.400;2023-09-19T10:55:30;23.17;;;21.87;;
9056;SDS011;4563;54.756;9.400;2023-09-19T10:57:58;9.77;;;9.37;;
9056;SDS011;4563;54.756;9.400;2023-09-19T11:00:28;1.73;;;1.63;;
9056;SDS011;4563;54.756;9.400;2023-09-19T11:03:19;1.23;;;0.60;;
9056;SDS011;4563;54.756;9.400;2023-09-19T11:08:53;1.20;;;0.50;;
9056;SDS011;4563;54.756;9.400;2023-09-19T11:11:38;0.50;;;0.40;;
9056;SDS011;4563;54.756;9.400;2023-09-19T11:14:15;0.40;;;0.40;;
9056;SDS011;4563;54.756;9.400;2023-09-19T11:20:16;0.60;;;0.60;;
9056;SDS011;4563;54.756;9.400;2023-09-19T11:23:23;1.60;;;0.53;;
9056;SDS011;4563;54.756;9.400;2023-09-19T11:25:53;0.60;;;0.30;;
9056;SDS011;4563;54.756;9.400;2023-09-19T11:28:33;0.80;;;0.40;;
9056;SDS011;4563;54.756;9.400;2023-09-19T11:34:43;1.27;;;0.30;;
9056;SDS011;4563;54.756;9.400;2023-09-19T11:40:37;0.67;;;0.47;;
9056;SDS011;4563;54.756;9.400;2023-09-19T11:46:01;1.10;;;0.57;;
9056;SDS011;4563;54.756;9.400;2023-09-19T11:48:31;1.30;;;1.23;;
9056;SDS011;4563;54.756;9.400;2023-09-19T11:51:00;0.67;;;0.67;;
9056;SDS011;4563;54.756;9.400;2023-09-19T11:53:32;1.23;;;0.70;;
9056;SDS011;4563;54.756;9.400;2023-09-19T11:56:04;0.70;;;0.60;;
9056;SDS011;4563;54.756;9.400;2023-09-19T11:58:35;0.80;;;0.50;;
9056;SDS011;4563;54.756;9.400;2023-09-19T12:01:04;0.67;;;0.60;;
9056;SDS011;4563;54.756;9.400;2023-09-19T12:03:38;0.50;;;0.50;;
9056;SDS011;4563;54.756;9.400;2023-09-19T12:06:12;1.13;;;0.50;;
9056;SDS011;4563;54.756;9.400;2023-09-19T12:08:41;0.60;;;0.60;;
9056;SDS011;4563;54.756;9.400;2023-09-19T12:11:13;2.13;;;1.03;;
9056;SDS011;4563;54.756;9.400;2023-09-19T12:13:44;0.67;;;0.50;;
9056;SDS011;4563;54.756;9.400;2023-09-19T12:16:14;0.87;;;0.60;;
9056;SDS011;4563;54.756;9.400;2023-09-19T12:18:42;1.03;;;0.67;;
9056;SDS011;4563;54.756;9.400;2023-09-19T12:21:27;2.10;;;0.50;;
9056;SDS011;4563;54.756;9.400;2023-09-19T12:26:45;0.30;;;0.30;;
9056;SDS011;4563;54.756;9.400;2023-09-19T12:29:17;0.37;;;0.33;;
9056;SDS011;4563;54.756;9.400;2023-09-19T12:31:48;0.40;;;0.30;;
9056;SDS011;4563;54.756;9.400;2023-09-19T12:34:21;0.53;;;0.40;;
9056;SDS011;4563;54.756;9.400;2023-09-19T12:37:03;1.47;;;0.40;;
9056;SDS011;4563;54.756;9.400;2023-09-19T12:39:36;0.57;;;0.40;;
9056;SDS011;4563;54.756;9.400;2023-09-19T12:42:07;0.90;;;0.33;;
9056;SDS011;4563;54.756;9.400;2023-09-19T12:44:39;0.70;;;0.40;;
9056;SDS011;4563;54.756;9.400;2023-09-19T12:47:08;0.70;;;0.50;;
9056;SDS011;4563;54.756;9.400;2023-09-19T12:49:54;0.83;;;0.40;;
9056;SDS011;4563;54.756;9.400;2023-09-19T12:52:43;0.53;;;0.43;;
9056;SDS011;4563;54.756;9.400;2023-09-19T12:55:21;1.60;;;0.47;;
9056;SDS011;4563;54.756;9.400;2023-09-19T12:57:57;0.40;;;0.40;;
9056;SDS011;4563;54.756;9.400;2023-09-19T13:00:33;0.50;;;0.50;;
9056;SDS011;4563;54.756;9.400;2023-09-19T13:03:11;1.07;;;0.50;;
9056;SDS011;4563;54.756;9.400;2023-09-19T13:05:47;0.43;;;0.43;;
9056;SDS011;4563;54.756;9.400;2023-09-19T13:08:21;0.53;;;0.40;;
9056;SDS011;4563;54.756;9.400;2023-09-19T13:11:08;0.63;;;0.50;;
9056;SDS011;4563;54.756;9.400;2023-09-19T13:13:43;1.47;;;0.60;;
9056;SDS011;4563;54.756;9.400;2023-09-19T13:16:13;0.97;;;0.70;;
9056;SDS011;4563;54.756;9.400;2023-09-19T13:18:45;0.40;;;0.40;;
9056;SDS011;4563;54.756;9.400;2023-09-19T13:21:12;0.67;;;0.40;;
9056;SDS011;4563;54.756;9.400;2023-09-19T13:23:52;0.80;;;0.50;;
9056;SDS011;4563;54.756;9.400;2023-09-19T13:26:24;0.50;;;0.40;;
9056;SDS011;4563;54.756;9.400;2023-09-19T13:28:54;0.80;;;0.30;;
9056;SDS011;4563;54.756;9.400;2023-09-19T13:31:21;0.47;;;0.47;;
9056;SDS011;4563;54.756;9.400;2023-09-19T13:33:48;0.60;;;0.33;;
9056;SDS011;4563;54.756;9.400;2023-09-19T13:36:17;0.30;;;0.30;;
9056;SDS011;4563;54.756;9.400;2023-09-19T13:38:44;0.60;;;0.40;;
9056;SDS011;4563;54.756;9.400;2023-09-19T13:41:13;0.77;;;0.30;;
9056;SDS011;4563;54.756;9.400;2023-09-19T13:43:41;0.97;;;0.43;;
9056;SDS011;4563;54.756;9.400;2023-09-19T13:46:14;0.53;;;0.40;;
9056;SDS011;4563;54.756;9.400;2023-09-19T13:48:41;0.50;;;0.40;;
9056;SDS011;4563;54.756;9.400;2023-09-19T13:51:08;0.30;;;0.30;;
9056;SDS011;4563;54.756;9.400;2023-09-19T13:53:35;0.40;;;0.40;;
9056;SDS011;4563;54.756;9.400;2023-09-19T13:56:02;0.30;;;0.30;;
9056;SDS011;4563;54.756;9.400;2023-09-19T13:58:29;0.50;;;0.27;;
9056;SDS011;4563;54.756;9.400;2023-09-19T14:00:58;0.83;;;0.60;;
9056;SDS011;4563;54.756;9.400;2023-09-19T14:03:27;1.03;;;0.50;;
9056;SDS011;4563;54.756;9.400;2023-09-19T14:05:54;0.50;;;0.50;;
9056;SDS011;4563;54.756;9.400;2023-09-19T14:08:20;0.57;;;0.40;;
9056;SDS011;4563;54.756;9.400;2023-09-19T14:10:48;0.57;;;0.40;;
9056;SDS011;4563;54.756;9.400;2023-09-19T14:13:15;0.30;;;0.30;;
9056;SDS011;4563;54.756;9.400;2023-09-19T14:15:42;0.60;;;0.40;;
9056;SDS011;4563;54.756;9.400;2023-09-19T14:18:08;0.40;;;0.40;;
9056;SDS011;4563;54.756;9.400;2023-09-19T14:20:38;1.03;;;0.40;;
9056;SDS011;4563;54.756;9.400;2023-09-19T14:23:06;0.50;;;0.50;;
9056;SDS011;4563;54.756;9.400;2023-09-19T14:25:37;0.60;;;0.40;;
9056;SDS011;4563;54.756;9.400;2023-09-19T14:28:04;0.60;;;0.60;;
9056;SDS011;4563;54.756;9.400;2023-09-19T14:30:33;0.67;;;0.50;;
9056;SDS011;4563;54.756;9.400;2023-09-19T14:32:59;0.40;;;0.40;;
9056;SDS011;4563;54.756;9.400;2023-09-19T14:35:27;0.77;;;0.33;;
9056;SDS011;4563;54.756;9.400;2023-09-19T14:37:55;0.97;;;0.40;;
9056;SDS011;4563;54.756;9.400;2023-09-19T14:40:22;0.53;;;0.40;;
9056;SDS011;4563;54.756;9.400;2023-09-19T14:42:48;0.90;;;0.30;;
9056;SDS011;4563;54.756;9.400;2023-09-19T14:45:15;0.33;;;0.30;;
9056;SDS011;4563;54.756;9.400;2023-09-19T14:47:43;0.50;;;0.43;;
9056;SDS011;4563;54.756;9.400;2023-09-19T14:50:11;0.70;;;0.40;;
9056;SDS011;4563;54.756;9.400;2023-09-19T14:52:40;0.37;;;0.33;;
9056;SDS011;4563;54.756;9.400;2023-09-19T14:55:08;0.50;;;0.50;;
9056;SDS011;4563;54.756;9.400;2023-09-19T14:57:39;0.47;;;0.40;;
9056;SDS011;4563;54.756;9.400;2023-09-19T15:00:07;1.13;;;0.43;;
9056;SDS011;4563;54.756;9.400;2023-09-19T15:02:37;0.83;;;0.30;;
9056;SDS011;4563;54.756;9.400;2023-09-19T15:05:05;0.30;;;0.30;;
9056;SDS011;4563;54.756;9.400;2023-09-19T15:07:33;0.90;;;0.60;;
9056;SDS011;4563;54.756;9.400;2023-09-19T15:10:01;0.47;;;0.40;;
9056;SDS011;4563;54.756;9.400;2023-09-19T15:12:33;0.90;;;0.50;;
9056;SDS011;4563;54.756;9.400;2023-09-19T15:15:00;0.40;;;0.40;;
9056;SDS011;4563;54.756;9.400;2023-09-19T15:17:27;0.93;;;0.33;;
9056;SDS011;4563;54.756;9.400;2023-09-19T15:19:54;1.00;;;0.60;;
9056;SDS011;4563;54.756;9.400;2023-09-19T15:22:21;0.63;;;0.50;;
9056;SDS011;4563;54.756;9.400;2023-09-19T15:24:48;0.80;;;0.37;;
9056;SDS011;4563;54.756;9.400;2023-09-19T15:27:16;0.30;;;0.30;;
9056;SDS011;4563;54.756;9.400;2023-09-19T15:29:46;0.77;;;0.50;;
9056;SDS011;4563;54.756;9.400;2023-09-19T15:32:13;1.03;;;0.40;;
9056;SDS011;4563;54.756;9.400;2023-09-19T15:34:40;0.97;;;0.50;;
9056;SDS011;4563;54.756;9.400;2023-09-19T15:37:07;0.40;;;0.40;;
9056;SDS011;4563;54.756;9.400;2023-09-19T15:39:34;0.77;;;0.50;;
9056;SDS011;4563;54.756;9.400;2023-09-19T15:42:02;0.67;;;0.30;;
9056;SDS011;4563;54.756;9.400;2023-09-19T15:44:29;1.17;;;0.33;;
9056;SDS011;4563;54.756;9.400;2023-09-19T15:46:57;1.80;;;0.50;;
9056;SDS011;4563;54.756;9.400;2023-09-19T15:49:27;0.40;;;0.40;;
9056;SDS011;4563;54.756;9.400;2023-09-19T15:51:54;0.90;;;0.70;;
9056;SDS011;4563;54.756;9.400;2023-09-19T15:54:21;0.83;;;0.60;;
9056;SDS011;4563;54.756;9.400;2023-09-19T15:56:48;1.13;;;0.60;;